sensor_id;sensor_type;location;lat;lon;timestamp;pressure;altitude;pressure_sealevel;temperature;humidity
29315;BME280;16320;53.954;9.506;2023-06-22T00:01:35;101835.28;;;17.28;100.00
29315;BME280;16320;53.954;9.506;2023-06-22T00:04:39;101834.44;;;17.28;100.00
29315;BME280;16320;53.954;9.506;2023-06-22T00:07:44;101840.97;;;17.22;100.00
29315;BME280;16320;53.954;9.506;2023-06-22T00:10:48;101828.84;;;17.18;100.00
29315;BME280;16320;53.954;9.506;2023-06-22T00:13:53;101830.19;;;17.11;100.00
29315;BME280;16320;53.954;9.506;2023-06-22T00:16:57;101834.34;;;17.15;100.00
29315;BME280;16320;53.954;9.506;2023-06-22T00:20:03;101845.53;;;17.20;100.00
29315;BME280;16320;53.954;9.506;2023-06-22T00:23:10;101855.41;;;17.18;100.00
29315;BME280;16320;53.954;9.506;2023-06-22T00:26:14;101857.69;;;17.10;100.00
29315;BME280;16320;53.954;9.506;2023-06-22T00:29:18;101853.75;;;17.01;100.00
29315;BME280;16320;53.954;9.506;2023-06-22T00:32:23;101863.34;;;17.04;100.00
29315;BME280;16320;53.954;9.506;2023-06-22T00:35:28;101858.22;;;17.00;100.00
29315;BME280;16320;53.954;9.506;2023-06-22T00:38:34;101854.81;;;16.98;100.00
29315;BME280;16320;53.954;9.506;2023-06-22T00:41:39;101847.78;;;16.97;100.00
29315;BME280;16320;53.954;9.506;2023-06-22T00:44:43;101845.41;;;16.93;100.00
29315;BME280;16320;53.954;9.506;2023-06-22T00:47:57;101847.03;;;16.95;100.00
29315;BME280;16320;53.954;9.506;2023-06-22T00:51:02;101846.59;;;17.03;100.00
29315;BME280;16320;53.954;9.506;2023-06-22T00:54:07;101845.03;;;16.99;100.00
29315;BME280;16320;53.954;9.506;2023-06-22T00:57:13;101848.06;;;16.93;100.00
29315;BME280;16320;53.954;9.506;2023-06-22T01:00:20;101842.53;;;16.81;100.00
29315;BME280;16320;53.954;9.506;2023-06-22T01:03:25;101847.00;;;16.81;100.00
29315;BME280;16320;53.954;9.506;2023-06-22T01:07:00;101841.69;;;16.81;100.00
29315;BME280;16320;53.954;9.506;2023-06-22T01:10:25;101832.88;;;16.80;100.00
29315;BME280;16320;53.954;9.506;2023-06-22T01:13:45;101843.25;;;16.85;100.00
29315;BME280;16320;53.954;9.506;2023-06-22T01:16:54;101835.53;;;16.80;100.00
29315;BME280;16320;53.954;9.506;2023-06-22T01:20:00;101836.25;;;16.68;100.00
29315;BME280;16320;53.954;9.506;2023-06-22T01:27:36;101832.53;;;16.56;100.00
29315;BME280;16320;53.954;9.506;2023-06-22T01:30:51;101826.66;;;16.51;100.00
29315;BME280;16320;53.954;9.506;2023-06-22T01:34:08;101834.03;;;16.46;100.00
29315;BME280;16320;53.954;9.506;2023-06-22T01:37:14;101825.31;;;16.44;100.00
29315;BME280;16320;53.954;9.506;2023-06-22T01:40:20;101829.00;;;16.41;100.00
29315;BME280;16320;53.954;9.506;2023-06-22T01:43:27;101826.78;;;16.34;100.00
29315;BME280;16320;53.954;9.506;2023-06-22T01:46:34;101824.50;;;16.27;100.00
29315;BME280;16320;53.954;9.506;2023-06-22T01:49:41;101828.28;;;16.23;100.00
29315;BME280;16320;53.954;9.506;2023-06-22T01:52:45;101833.59;;;16.23;100.00
29315;BME280;16320;53.954;9.506;2023-06-22T01:55:49;101830.34;;;16.18;100.00
29315;BME280;16320;53.954;9.506;2023-06-22T02:02:19;101832.69;;;16.08;100.00
29315;BME280;16320;53.954;9.506;2023-06-22T02:05:31;101835.22;;;16.10;100.00
29315;BME280;16320;53.954;9.506;2023-06-22T02:08:44;101824.81;;;16.07;100.00
29315;BME280;16320;53.954;9.506;2023-06-22T02:11:52;101818.47;;;16.09;100.00
29315;BME280;16320;53.954;9.506;2023-06-22T02:14:59;101816.66;;;16.10;100.00
29315;BME280;16320;53.954;9.506;2023-06-22T02:18:05;101811.56;;;16.07;100.00
29315;BME280;16320;53.954;9.506;2023-06-22T02:21:10;101819.69;;;16.04;100.00
29315;BME280;16320;53.954;9.506;2023-06-22T02:24:14;101813.69;;;16.00;100.00
29315;BME280;16320;53.954;9.506;2023-06-22T02:27:19;101813.34;;;15.90;100.00
29315;BME280;16320;53.954;9.506;2023-06-22T02:30:23;101819.63;;;15.89;100.00
29315;BME280;16320;53.954;9.506;2023-06-22T02:33:27;101821.94;;;15.80;100.00
29315;BME280;16320;53.954;9.506;2023-06-22T02:36:32;101820.28;;;15.77;100.00
29315;BME280;16320;53.954;9.506;2023-06-22T02:39:37;101815.13;;;15.74;100.00
29315;BME280;16320;53.954;9.506;2023-06-22T02:42:42;101816.44;;;15.67;100.00
29315;BME280;16320;53.954;9.506;2023-06-22T02:45:46;101816.25;;;15.70;100.00
29315;BME280;16320;53.954;9.506;2023-06-22T02:48:51;101812.66;;;15.71;100.00
29315;BME280;16320;53.954;9.506;2023-06-22T02:51:57;101818.16;;;15.68;100.00
29315;BME280;16320;53.954;9.506;2023-06-22T02:55:02;101814.72;;;15.66;100.00
29315;BME280;16320;53.954;9.506;2023-06-22T02:58:06;101825.63;;;15.60;100.00
29315;BME280;16320;53.954;9.506;2023-06-22T03:01:10;101815.91;;;15.60;100.00
29315;BME280;16320;53.954;9.506;2023-06-22T03:04:17;101827.34;;;15.61;100.00
29315;BME280;16320;53.954;9.506;2023-06-22T03:07:22;101830.94;;;15.60;100.00
29315;BME280;16320;53.954;9.506;2023-06-22T03:10:26;101832.50;;;15.64;100.00
29315;BME280;16320;53.954;9.506;2023-06-22T03:13:31;101835.91;;;15.66;100.00
29315;BME280;16320;53.954;9.506;2023-06-22T03:16:35;101825.13;;;15.69;100.00
29315;BME280;16320;53.954;9.506;2023-06-22T03:19:40;101823.63;;;15.65;100.00
29315;BME280;16320;53.954;9.506;2023-06-22T03:22:45;101837.03;;;15.62;100.00
29315;BME280;16320;53.954;9.506;2023-06-22T03:25:49;101839.84;;;15.59;100.00
29315;BME280;16320;53.954;9.506;2023-06-22T03:28:54;101838.13;;;15.57;100.00
29315;BME280;16320;53.954;9.506;2023-06-22T03:31:58;101839.59;;;15.63;100.00
29315;BME280;16320;53.954;9.506;2023-06-22T03:35:03;101844.81;;;15.65;100.00
29315;BME280;16320;53.954;9.506;2023-06-22T03:38:09;101840.50;;;15.62;100.00
29315;BME280;16320;53.954;9.506;2023-06-22T03:41:14;101828.22;;;15.61;100.00
29315;BME280;16320;53.954;9.506;2023-06-22T03:44:18;101841.38;;;15.63;100.00
29315;BME280;16320;53.954;9.506;2023-06-22T03:47:23;101844.81;;;15.65;100.00
29315;BME280;16320;53.954;9.506;2023-06-22T03:50:28;101847.53;;;15.63;100.00
29315;BME280;16320;53.954;9.506;2023-06-22T03:53:33;101850.28;;;15.62;100.00
29315;BME280;16320;53.954;9.506;2023-06-22T03:56:38;101852.66;;;15.66;100.00
29315;BME280;16320;53.954;9.506;2023-06-22T03:59:42;101855.13;;;15.69;100.00
29315;BME280;16320;53.954;9.506;2023-06-22T04:02:47;101844.44;;;15.71;100.00
29315;BME280;16320;53.954;9.506;2023-06-22T04:05:51;101852.66;;;15.66;100.00
29315;BME280;16320;53.954;9.506;2023-06-22T04:08:56;101862.06;;;15.72;100.00
29315;BME280;16320;53.954;9.506;2023-06-22T04:12:03;101870.47;;;15.80;100.00
29315;BME280;16320;53.954;9.506;2023-06-22T04:15:08;101861.41;;;15.84;100.00
29315;BME280;16320;53.954;9.506;2023-06-22T04:18:12;101869.97;;;15.89;100.00
29315;BME280;16320;53.954;9.506;2023-06-22T04:21:18;101870.63;;;15.93;100.00
29315;BME280;16320;53.954;9.506;2023-06-22T04:24:23;101876.78;;;15.93;100.00
29315;BME280;16320;53.954;9.506;2023-06-22T04:27:28;101880.06;;;15.99;100.00
29315;BME280;16320;53.954;9.506;2023-06-22T04:30:33;101879.69;;;16.05;100.00
29315;BME280;16320;53.954;9.506;2023-06-22T04:33:37;101883.13;;;16.07;100.00
29315;BME280;16320;53.954;9.506;2023-06-22T04:36:44;101880.97;;;16.14;100.00
29315;BME280;16320;53.954;9.506;2023-06-22T04:39:49;101882.56;;;16.16;100.00
29315;BME280;16320;53.954;9.506;2023-06-22T04:42:54;101883.16;;;16.21;100.00
29315;BME280;16320;53.954;9.506;2023-06-22T04:45:59;101881.31;;;16.23;100.00
29315;BME280;16320;53.954;9.506;2023-06-22T04:49:08;101876.84;;;16.24;100.00
29315;BME280;16320;53.954;9.506;2023-06-22T04:52:16;101875.91;;;16.25;100.00
29315;BME280;16320;53.954;9.506;2023-06-22T04:55:24;101881.13;;;16.26;100.00
29315;BME280;16320;53.954;9.506;2023-06-22T04:58:30;101880.16;;;16.27;100.00
29315;BME280;16320;53.954;9.506;2023-06-22T05:01:37;101877.75;;;16.39;100.00
29315;BME280;16320;53.954;9.506;2023-06-22T05:04:41;101874.00;;;16.43;100.00
29315;BME280;16320;53.954;9.506;2023-06-22T05:07:46;101879.31;;;16.43;100.00
29315;BME280;16320;53.954;9.506;2023-06-22T05:10:55;101878.06;;;16.48;100.00
29315;BME280;16320;53.954;9.506;2023-06-22T05:14:09;101881.31;;;16.54;100.00
29315;BME280;16320;53.954;9.506;2023-06-22T05:17:14;101873.09;;;16.58;100.00
29315;BME280;16320;53.954;9.506;2023-06-22T05:20:20;101888.66;;;16.64;100.00
29315;BME280;16320;53.954;9.506;2023-06-22T05:23:26;101885.22;;;16.62;100.00
29315;BME280;16320;53.954;9.506;2023-06-22T05:26:33;101886.75;;;16.66;100.00
29315;BME280;16320;53.954;9.506;2023-06-22T05:29:55;101887.94;;;16.77;100.00
29315;BME280;16320;53.954;9.506;2023-06-22T05:33:17;101896.66;;;16.79;100.00
29315;BME280;16320;53.954;9.506;2023-06-22T05:36:22;101896.31;;;16.85;100.00
29315;BME280;16320;53.954;9.506;2023-06-22T05:39:29;101901.22;;;16.91;100.00
29315;BME280;16320;53.954;9.506;2023-06-22T05:42:34;101909.31;;;17.04;100.00
29315;BME280;16320;53.954;9.506;2023-06-22T05:45:38;101911.34;;;17.15;100.00
29315;BME280;16320;53.954;9.506;2023-06-22T05:48:43;101913.44;;;17.24;100.00
29315;BME280;16320;53.954;9.506;2023-06-22T05:51:47;101916.38;;;17.34;100.00
29315;BME280;16320;53.954;9.506;2023-06-22T05:54:52;101918.44;;;17.43;100.00
29315;BME280;16320;53.954;9.506;2023-06-22T05:57:56;101902.41;;;17.59;100.00
29315;BME280;16320;53.954;9.506;2023-06-22T06:01:01;101891.22;;;17.68;100.00
29315;BME280;16320;53.954;9.506;2023-06-22T06:04:06;101885.91;;;17.68;100.00
29315;BME280;16320;53.954;9.506;2023-06-22T06:07:12;101874.50;;;17.81;100.00
29315;BME280;16320;53.954;9.506;2023-06-22T06:10:17;101867.56;;;17.78;100.00
29315;BME280;16320;53.954;9.506;2023-06-22T06:13:21;101875.06;;;17.86;100.00
29315;BME280;16320;53.954;9.506;2023-06-22T06:16:26;101884.16;;;17.96;100.00
29315;BME280;16320;53.954;9.506;2023-06-22T06:19:30;101880.81;;;18.07;100.00
29315;BME280;16320;53.954;9.506;2023-06-22T06:22:34;101881.47;;;18.10;100.00
29315;BME280;16320;53.954;9.506;2023-06-22T06:25:39;101874.34;;;18.11;100.00
29315;BME280;16320;53.954;9.506;2023-06-22T06:28:43;101861.50;;;18.18;100.00
29315;BME280;16320;53.954;9.506;2023-06-22T06:31:48;101853.66;;;18.29;100.00
29315;BME280;16320;53.954;9.506;2023-06-22T06:34:53;101849.25;;;18.42;100.00
29315;BME280;16320;53.954;9.506;2023-06-22T06:37:57;101843.50;;;18.48;100.00
29315;BME280;16320;53.954;9.506;2023-06-22T06:41:01;101845.00;;;18.53;100.00
29315;BME280;16320;53.954;9.506;2023-06-22T06:44:05;101855.44;;;18.56;100.00
29315;BME280;16320;53.954;9.506;2023-06-22T06:47:09;101825.31;;;18.68;100.00
29315;BME280;16320;53.954;9.506;2023-06-22T06:50:15;101828.19;;;18.78;100.00
29315;BME280;16320;53.954;9.506;2023-06-22T06:53:20;101823.53;;;18.81;100.00
29315;BME280;16320;53.954;9.506;2023-06-22T06:56:24;101813.66;;;18.83;100.00
29315;BME280;16320;53.954;9.506;2023-06-22T06:59:29;101802.38;;;18.93;100.00
29315;BME280;16320;53.954;9.506;2023-06-22T07:02:34;101793.72;;;19.02;100.00
29315;BME280;16320;53.954;9.506;2023-06-22T07:05:39;101804.78;;;19.09;100.00
29315;BME280;16320;53.954;9.506;2023-06-22T07:08:43;101813.53;;;19.11;100.00
29315;BME280;16320;53.954;9.506;2023-06-22T07:11:48;101807.03;;;19.15;100.00
29315;BME280;16320;53.954;9.506;2023-06-22T07:14:53;101763.97;;;19.21;100.00
29315;BME280;16320;53.954;9.506;2023-06-22T07:17:57;101761.91;;;19.37;100.00
29315;BME280;16320;53.954;9.506;2023-06-22T07:21:02;101763.41;;;19.42;100.00
29315;BME280;16320;53.954;9.506;2023-06-22T07:24:10;101773.19;;;19.41;100.00
29315;BME280;16320;53.954;9.506;2023-06-22T07:27:14;101758.69;;;19.45;100.00
29315;BME280;16320;53.954;9.506;2023-06-22T07:30:22;101771.78;;;19.48;100.00
29315;BME280;16320;53.954;9.506;2023-06-22T07:33:27;101781.25;;;19.52;100.00
29315;BME280;16320;53.954;9.506;2023-06-22T07:36:32;101771.63;;;19.63;100.00
29315;BME280;16320;53.954;9.506;2023-06-22T07:39:36;101755.66;;;19.63;100.00
29315;BME280;16320;53.954;9.506;2023-06-22T07:42:42;101727.03;;;19.78;100.00
29315;BME280;16320;53.954;9.506;2023-06-22T07:45:49;101725.22;;;19.78;100.00
29315;BME280;16320;53.954;9.506;2023-06-22T07:48:57;101724.56;;;19.99;100.00
29315;BME280;16320;53.954;9.506;2023-06-22T07:52:02;101731.56;;;20.00;100.00
29315;BME280;16320;53.954;9.506;2023-06-22T07:55:10;101727.50;;;20.07;100.00
29315;BME280;16320;53.954;9.506;2023-06-22T07:58:14;101734.50;;;20.08;100.00
29315;BME280;16320;53.954;9.506;2023-06-22T08:01:19;101724.84;;;20.18;100.00
29315;BME280;16320;53.954;9.506;2023-06-22T08:04:25;101729.31;;;20.18;100.00
29315;BME280;16320;53.954;9.506;2023-06-22T08:07:31;101729.84;;;20.23;100.00
29315;BME280;16320;53.954;9.506;2023-06-22T08:10:37;101724.66;;;20.44;100.00
29315;BME280;16320;53.954;9.506;2023-06-22T08:13:41;101737.16;;;20.55;100.00
29315;BME280;16320;53.954;9.506;2023-06-22T08:16:46;101724.19;;;20.61;100.00
29315;BME280;16320;53.954;9.506;2023-06-22T08:19:50;101733.66;;;20.54;100.00
29315;BME280;16320;53.954;9.506;2023-06-22T08:22:55;101750.44;;;20.67;100.00
29315;BME280;16320;53.954;9.506;2023-06-22T08:26:01;101731.75;;;20.90;100.00
29315;BME280;16320;53.954;9.506;2023-06-22T08:29:06;101745.44;;;20.74;100.00
29315;BME280;16320;53.954;9.506;2023-06-22T08:32:11;101742.78;;;20.85;100.00
29315;BME280;16320;53.954;9.506;2023-06-22T08:35:16;101709.66;;;20.99;100.00
29315;BME280;16320;53.954;9.506;2023-06-22T08:38:21;101711.44;;;21.10;100.00
29315;BME280;16320;53.954;9.506;2023-06-22T08:41:25;101694.91;;;21.16;100.00
29315;BME280;16320;53.954;9.506;2023-06-22T08:44:30;101705.97;;;21.12;100.00
29315;BME280;16320;53.954;9.506;2023-06-22T08:47:34;101718.13;;;21.16;100.00
29315;BME280;16320;53.954;9.506;2023-06-22T08:50:39;101717.63;;;21.22;100.00
29315;BME280;16320;53.954;9.506;2023-06-22T08:53:44;101711.78;;;21.17;100.00
29315;BME280;16320;53.954;9.506;2023-06-22T08:56:49;101713.03;;;21.13;100.00
29315;BME280;16320;53.954;9.506;2023-06-22T08:59:54;101721.38;;;21.19;100.00
29315;BME280;16320;53.954;9.506;2023-06-22T09:03:03;101701.94;;;21.29;100.00
29315;BME280;16320;53.954;9.506;2023-06-22T09:06:07;101690.69;;;21.46;100.00
29315;BME280;16320;53.954;9.506;2023-06-22T09:09:16;101690.34;;;21.39;100.00
29315;BME280;16320;53.954;9.506;2023-06-22T09:12:20;101678.09;;;21.48;100.00
29315;BME280;16320;53.954;9.506;2023-06-22T09:15:29;101673.59;;;21.49;100.00
29315;BME280;16320;53.954;9.506;2023-06-22T09:18:34;101664.44;;;21.63;100.00
29315;BME280;16320;53.954;9.506;2023-06-22T09:21:40;101662.34;;;21.66;100.00
29315;BME280;16320;53.954;9.506;2023-06-22T09:24:44;101636.25;;;21.80;100.00
29315;BME280;16320;53.954;9.506;2023-06-22T09:27:49;101634.22;;;21.93;100.00
29315;BME280;16320;53.954;9.506;2023-06-22T09:30:53;101635.16;;;22.03;100.00
29315;BME280;16320;53.954;9.506;2023-06-22T09:34:02;101651.47;;;22.00;100.00
29315;BME280;16320;53.954;9.506;2023-06-22T09:37:06;101639.41;;;22.16;100.00
29315;BME280;16320;53.954;9.506;2023-06-22T09:40:11;101642.66;;;22.19;100.00
29315;BME280;16320;53.954;9.506;2023-06-22T09:43:17;101629.78;;;22.24;100.00
29315;BME280;16320;53.954;9.506;2023-06-22T09:46:21;101615.09;;;22.49;100.00
29315;BME280;16320;53.954;9.506;2023-06-22T09:49:29;101613.13;;;22.52;100.00
29315;BME280;16320;53.954;9.506;2023-06-22T09:52:51;101613.16;;;22.61;100.00
29315;BME280;16320;53.954;9.506;2023-06-22T09:56:01;101610.97;;;22.76;100.00
29315;BME280;16320;53.954;9.506;2023-06-22T09:59:06;101605.44;;;22.78;100.00
29315;BME280;16320;53.954;9.506;2023-06-22T10:02:22;101600.94;;;22.78;100.00
29315;BME280;16320;53.954;9.506;2023-06-22T10:05:27;101597.00;;;22.92;100.00
29315;BME280;16320;53.954;9.506;2023-06-22T10:08:32;101592.38;;;22.84;100.00
29315;BME280;16320;53.954;9.506;2023-06-22T10:11:36;101596.03;;;22.83;100.00
29315;BME280;16320;53.954;9.506;2023-06-22T10:14:41;101615.34;;;22.97;100.00
29315;BME280;16320;53.954;9.506;2023-06-22T10:17:47;101600.25;;;22.76;100.00
29315;BME280;16320;53.954;9.506;2023-06-22T10:20:52;101599.09;;;22.69;100.00
29315;BME280;16320;53.954;9.506;2023-06-22T10:23:56;101586.75;;;22.97;100.00
29315;BME280;16320;53.954;9.506;2023-06-22T10:27:00;101594.06;;;23.05;100.00
29315;BME280;16320;53.954;9.506;2023-06-22T10:30:06;101588.16;;;23.01;100.00
29315;BME280;16320;53.954;9.506;2023-06-22T10:33:12;101581.38;;;22.97;100.00
29315;BME280;16320;53.954;9.506;2023-06-22T10:36:16;101581.94;;;22.91;100.00
29315;BME280;16320;53.954;9.506;2023-06-22T10:39:21;101587.00;;;22.84;100.00
29315;BME280;16320;53.954;9.506;2023-06-22T10:42:25;101594.06;;;23.05;100.00
29315;BME280;16320;53.954;9.506;2023-06-22T10:45:30;101598.91;;;23.31;100.00
29315;BME280;16320;53.954;9.506;2023-06-22T10:48:35;101575.16;;;23.55;100.00
29315;BME280;16320;53.954;9.506;2023-06-22T10:51:39;101565.81;;;23.79;100.00
29315;BME280;16320;53.954;9.506;2023-06-22T10:54:44;101582.31;;;24.31;100.00
29315;BME280;16320;53.954;9.506;2023-06-22T10:57:48;101574.66;;;24.64;100.00
29315;BME280;16320;53.954;9.506;2023-06-22T11:00:54;101552.63;;;24.79;100.00
29315;BME280;16320;53.954;9.506;2023-06-22T11:03:57;101557.88;;;24.98;100.00
29315;BME280;16320;53.954;9.506;2023-06-22T11:07:02;101545.53;;;24.88;100.00
29315;BME280;16320;53.954;9.506;2023-06-22T11:10:07;101541.97;;;24.41;100.00
29315;BME280;16320;53.954;9.506;2023-06-22T11:13:12;101553.16;;;24.37;100.00
29315;BME280;16320;53.954;9.506;2023-06-22T11:16:16;101542.41;;;24.64;100.00
29315;BME280;16320;53.954;9.506;2023-06-22T11:19:20;101535.25;;;24.55;100.00
29315;BME280;16320;53.954;9.506;2023-06-22T11:22:25;101536.31;;;24.44;100.00
29315;BME280;16320;53.954;9.506;2023-06-22T11:25:30;101532.63;;;24.73;100.00
29315;BME280;16320;53.954;9.506;2023-06-22T11:28:34;101524.53;;;25.27;100.00
29315;BME280;16320;53.954;9.506;2023-06-22T11:31:39;101522.66;;;25.46;100.00
29315;BME280;16320;53.954;9.506;2023-06-22T11:34:43;101517.38;;;25.36;100.00
29315;BME280;16320;53.954;9.506;2023-06-22T11:37:47;101522.53;;;25.11;100.00
29315;BME280;16320;53.954;9.506;2023-06-22T11:40:52;101522.81;;;25.26;100.00
29315;BME280;16320;53.954;9.506;2023-06-22T11:43:57;101512.53;;;25.66;100.00
29315;BME280;16320;53.954;9.506;2023-06-22T11:47:02;101508.66;;;25.68;100.00
29315;BME280;16320;53.954;9.506;2023-06-22T11:50:09;101512.16;;;25.34;100.00
29315;BME280;16320;53.954;9.506;2023-06-22T11:53:13;101503.56;;;25.31;100.00
29315;BME280;16320;53.954;9.506;2023-06-22T11:56:20;101501.13;;;25.46;100.00
29315;BME280;16320;53.954;9.506;2023-06-22T11:59:25;101497.94;;;25.76;100.00
29315;BME280;16320;53.954;9.506;2023-06-22T12:02:29;101492.56;;;25.76;100.00
29315;BME280;16320;53.954;9.506;2023-06-22T12:05:34;101485.19;;;25.79;100.00
29315;BME280;16320;53.954;9.506;2023-06-22T12:08:39;101492.38;;;26.04;100.00
29315;BME280;16320;53.954;9.506;2023-06-22T12:11:45;101466.88;;;26.33;100.00
29315;BME280;16320;53.954;9.506;2023-06-22T12:14:49;101456.81;;;26.43;100.00
29315;BME280;16320;53.954;9.506;2023-06-22T12:17:53;101458.06;;;26.74;100.00
29315;BME280;16320;53.954;9.506;2023-06-22T12:20:58;101459.41;;;26.94;100.00
29315;BME280;16320;53.954;9.506;2023-06-22T12:24:03;101453.50;;;27.07;100.00
29315;BME280;16320;53.954;9.506;2023-06-22T12:27:07;101442.72;;;27.07;100.00
29315;BME280;16320;53.954;9.506;2023-06-22T12:30:12;101446.75;;;27.03;100.00
29315;BME280;16320;53.954;9.506;2023-06-22T12:33:16;101434.97;;;26.96;100.00
29315;BME280;16320;53.954;9.506;2023-06-22T12:36:21;101435.47;;;26.99;100.00
29315;BME280;16320;53.954;9.506;2023-06-22T12:39:25;101432.41;;;27.11;100.00
29315;BME280;16320;53.954;9.506;2023-06-22T12:42:30;101438.97;;;27.16;100.00
29315;BME280;16320;53.954;9.506;2023-06-22T12:45:34;101433.28;;;26.95;100.00
29315;BME280;16320;53.954;9.506;2023-06-22T12:48:38;101428.72;;;26.46;100.00
29315;BME280;16320;53.954;9.506;2023-06-22T12:51:46;101434.28;;;25.93;100.00
29315;BME280;16320;53.954;9.506;2023-06-22T12:54:50;101433.00;;;25.63;100.00
29315;BME280;16320;53.954;9.506;2023-06-22T12:57:59;101432.06;;;25.20;100.00
29315;BME280;16320;53.954;9.506;2023-06-22T13:01:03;101425.75;;;24.85;100.00
29315;BME280;16320;53.954;9.506;2023-06-22T13:04:08;101428.13;;;24.88;100.00
29315;BME280;16320;53.954;9.506;2023-06-22T13:07:15;101438.91;;;24.70;100.00
29315;BME280;16320;53.954;9.506;2023-06-22T13:10:27;101446.06;;;24.34;100.00
29315;BME280;16320;53.954;9.506;2023-06-22T13:13:32;101434.03;;;24.38;100.00
29315;BME280;16320;53.954;9.506;2023-06-22T13:16:38;101425.31;;;24.72;100.00
29315;BME280;16320;53.954;9.506;2023-06-22T13:19:42;101426.81;;;24.92;100.00
29315;BME280;16320;53.954;9.506;2023-06-22T13:22:47;101405.81;;;25.14;100.00
29315;BME280;16320;53.954;9.506;2023-06-22T13:25:51;101415.13;;;25.01;100.00
29315;BME280;16320;53.954;9.506;2023-06-22T13:28:55;101422.16;;;24.94;100.00
29315;BME280;16320;53.954;9.506;2023-06-22T13:32:00;101401.53;;;25.03;100.00
29315;BME280;16320;53.954;9.506;2023-06-22T13:35:23;101404.44;;;25.10;100.00
29315;BME280;16320;53.954;9.506;2023-06-22T13:38:45;101410.56;;;25.20;100.00
29315;BME280;16320;53.954;9.506;2023-06-22T13:42:08;101403.38;;;25.02;100.00
29315;BME280;16320;53.954;9.506;2023-06-22T13:45:31;101407.63;;;24.87;100.00
29315;BME280;16320;53.954;9.506;2023-06-22T13:48:53;101401.00;;;24.73;100.00
29315;BME280;16320;53.954;9.506;2023-06-22T13:52:16;101403.78;;;24.63;100.00
29315;BME280;16320;53.954;9.506;2023-06-22T13:55:21;101404.75;;;24.44;100.00
29315;BME280;16320;53.954;9.506;2023-06-22T13:58:27;101398.91;;;24.31;100.00
29315;BME280;16320;53.954;9.506;2023-06-22T14:01:31;101391.69;;;24.31;100.00
29315;BME280;16320;53.954;9.506;2023-06-22T14:04:36;101383.94;;;24.46;100.00
29315;BME280;16320;53.954;9.506;2023-06-22T14:07:41;101383.63;;;24.49;100.00
29315;BME280;16320;53.954;9.506;2023-06-22T14:10:45;101379.91;;;24.60;100.00
29315;BME280;16320;53.954;9.506;2023-06-22T14:13:49;101394.31;;;24.41;100.00
29315;BME280;16320;53.954;9.506;2023-06-22T14:16:54;101388.72;;;24.35;100.00
29315;BME280;16320;53.954;9.506;2023-06-22T14:19:58;101382.28;;;24.27;100.00
29315;BME280;16320;53.954;9.506;2023-06-22T14:23:02;101375.66;;;24.40;100.00
29315;BME280;16320;53.954;9.506;2023-06-22T14:26:07;101385.09;;;24.44;100.00
29315;BME280;16320;53.954;9.506;2023-06-22T14:29:11;101366.63;;;24.41;100.00
29315;BME280;16320;53.954;9.506;2023-06-22T14:32:16;101362.91;;;24.42;100.00
29315;BME280;16320;53.954;9.506;2023-06-22T14:35:20;101352.88;;;24.44;100.00
29315;BME280;16320;53.954;9.506;2023-06-22T14:38:25;101350.22;;;24.44;100.00
29315;BME280;16320;53.954;9.506;2023-06-22T14:41:30;101343.88;;;24.53;100.00
29315;BME280;16320;53.954;9.506;2023-06-22T14:44:35;101348.97;;;24.56;100.00
29315;BME280;16320;53.954;9.506;2023-06-22T14:47:39;101345.16;;;24.59;100.00
29315;BME280;16320;53.954;9.506;2023-06-22T14:50:44;101344.19;;;24.50;100.00
29315;BME280;16320;53.954;9.506;2023-06-22T14:53:49;101342.53;;;24.49;100.00
29315;BME280;16320;53.954;9.506;2023-06-22T14:56:53;101335.81;;;24.53;100.00
29315;BME280;16320;53.954;9.506;2023-06-22T14:59:57;101314.44;;;24.61;100.00
29315;BME280;16320;53.954;9.506;2023-06-22T15:03:02;101314.94;;;24.57;100.00
29315;BME280;16320;53.954;9.506;2023-06-22T15:06:08;101323.88;;;24.47;100.00
29315;BME280;16320;53.954;9.506;2023-06-22T15:09:12;101318.28;;;24.41;100.00
29315;BME280;16320;53.954;9.506;2023-06-22T15:12:16;101310.00;;;24.52;100.00
29315;BME280;16320;53.954;9.506;2023-06-22T15:15:21;101314.28;;;24.45;100.00
29315;BME280;16320;53.954;9.506;2023-06-22T15:18:26;101329.72;;;24.43;100.00
29315;BME280;16320;53.954;9.506;2023-06-22T15:21:31;101315.09;;;24.37;100.00
29315;BME280;16320;53.954;9.506;2023-06-22T15:24:35;101310.31;;;24.49;100.00
29315;BME280;16320;53.954;9.506;2023-06-22T15:27:40;101318.44;;;24.57;100.00
29315;BME280;16320;53.954;9.506;2023-06-22T15:30:44;101303.91;;;24.50;100.00
29315;BME280;16320;53.954;9.506;2023-06-22T15:33:52;101307.66;;;24.31;100.00
29315;BME280;16320;53.954;9.506;2023-06-22T15:36:57;101303.56;;;24.27;100.00
29315;BME280;16320;53.954;9.506;2023-06-22T15:40:03;101300.66;;;24.20;100.00
29315;BME280;16320;53.954;9.506;2023-06-22T15:43:11;101290.31;;;24.25;100.00
29315;BME280;16320;53.954;9.506;2023-06-22T15:46:16;101286.56;;;24.18;100.00
29315;BME280;16320;53.954;9.506;2023-06-22T15:49:22;101286.25;;;24.21;100.00
29315;BME280;16320;53.954;9.506;2023-06-22T15:52:26;101290.53;;;24.14;100.00
29315;BME280;16320;53.954;9.506;2023-06-22T15:55:31;101302.06;;;24.06;100.00
29315;BME280;16320;53.954;9.506;2023-06-22T15:58:37;101292.63;;;24.02;100.00
29315;BME280;16320;53.954;9.506;2023-06-22T16:01:43;101288.75;;;23.97;100.00
29315;BME280;16320;53.954;9.506;2023-06-22T16:04:47;101290.31;;;23.89;100.00
29315;BME280;16320;53.954;9.506;2023-06-22T16:07:55;101270.72;;;23.89;100.00